aviador You're here:

KDVP Decoded Metar

SLAYTON in MN, USA
Report Time2018-02-21 21:18:00
UTC Time2018-02-21 21:24:04
Flight Rules vfr VFR
Wind220° at 11 kt
W.Decomp.*RWY 17: 7.6 kt HW 7.9 kt RCW
W.Rank220° ranks 20
Current wind is above 220° avg. (10.5)
Visibility9999 m
Phenomena:N/A
Clouds:N/A
Expected CloudBase > 2,400 ft AGL from Temp-Dew spread
CeilingNone
Temp-9°C (ISA -21)
Dew Point-15°C (62% RH)
AAT-16.3°C
QNH1035 hPa
Density Alt-1,673 ft
Elevation1,624 ft
Report Wrong Elevation
Raw Report
METAR KDVP 212118Z AUTO 22011KT 10SM CLR M09/M15 A3056 RMK AO2
T10951150=

Extra information for KDVP:More info

Metar Taf Metar & Taf Last 4 Metars F.Rules Stats Wind Profile Meteogram Temp Stats Airport Information Weather charts Add Link Nearby VenuesMetar ALERT Operation Metar Decoded Social comments

AIRNAV info for KDVP